Search for airport 
image banner adimage banner adimage banner ad
image banner ad

64PN - Hershey Medical Center

Located in Hershey, United States

ICAO - 64PN, IATA -

Data provided by Airmate  

General information

Coordinates: N40°15'54" W76°40'31"
Elevation is 465 feet MSL.
Magnetic variation is -10° East
View others Airports in Pennsylvania

Operational data

Special qualification required
Current time UTC:
Current local time:
Weather at : KMDT - Harrisburg Intl ( 11 km )
METAR: KMDT 071156Z 11004KT 10SM BKN110 11/02 A2992 RMK AO2 SLP132 7//// T01060017 10111 20078 53002
TAF: KMDT 071127Z 0712/0812 12007KT P6SM SCT100 BKN250 FM071800 VRB05KT P6SM -RA OVC050 FM072200 31005KT 5SM -RA BR OVC035 FM080500 26006KT P6SM BKN035
View NOTAMs / SUP AIP / TFR affecting this airport [VIEW]
Communications frequencies: [VIEW]

Runways:

Airport contact information

Address: Hershey United States

Satellite view of 64PN